createdAt,value
2018-08-28T00:04:14.648Z,1.90
2018-08-28T00:09:17.199Z,2.43
2018-08-28T00:14:19.728Z,2.07
2018-08-28T00:19:22.246Z,2.13
2018-08-28T00:24:24.825Z,1.70
2018-08-28T00:29:27.394Z,1.80
2018-08-28T00:34:29.912Z,2.00
2018-08-28T00:39:32.451Z,2.00
2018-08-28T00:44:34.975Z,2.30
2018-08-28T00:49:37.488Z,1.70
2018-08-28T00:54:40.063Z,1.90
2018-08-28T00:59:42.678Z,2.07
2018-08-28T01:04:45.205Z,1.93
2018-08-28T01:09:47.755Z,2.00
2018-08-28T01:14:50.265Z,2.10
2018-08-28T01:19:52.830Z,1.97
2018-08-28T01:24:55.357Z,2.20
2018-08-28T01:29:57.907Z,1.70
2018-08-28T01:35:01.264Z,2.33
2018-08-28T01:40:03.828Z,2.10
2018-08-28T01:45:06.416Z,2.30
2018-08-28T01:50:08.927Z,1.83
2018-08-28T01:55:11.464Z,2.00
2018-08-28T02:00:13.982Z,2.03
2018-08-28T02:05:16.550Z,2.07
2018-08-28T02:10:19.090Z,2.40
2018-08-28T02:15:21.631Z,2.40
2018-08-28T02:20:24.166Z,2.27
2018-08-28T02:25:26.714Z,2.30
2018-08-28T02:30:29.246Z,2.73
2018-08-28T02:35:31.800Z,2.60
2018-08-28T02:40:34.351Z,2.70
2018-08-28T02:45:36.878Z,2.80
2018-08-28T02:50:39.413Z,2.60
2018-08-28T02:55:41.943Z,2.80
2018-08-28T03:00:44.498Z,2.77
2018-08-28T03:05:47.018Z,2.67
2018-08-28T03:10:49.540Z,3.00
2018-08-28T03:15:52.151Z,2.87
2018-08-28T03:20:54.643Z,2.87
2018-08-28T03:25:57.139Z,2.90
2018-08-28T03:30:59.675Z,3.50
2018-08-28T03:36:02.221Z,3.37
2018-08-28T03:41:04.835Z,3.23
2018-08-28T03:46:07.353Z,3.03
2018-08-28T03:51:10.135Z,3.40
2018-08-28T03:56:12.654Z,4.43
2018-08-28T04:01:15.163Z,3.30
2018-08-28T04:06:17.730Z,4.10
2018-08-28T04:11:20.291Z,4.40
2018-08-28T04:16:22.844Z,5.13
2018-08-28T04:21:25.387Z,5.80
2018-08-28T04:26:27.901Z,5.00
2018-08-28T04:31:30.458Z,5.27
2018-08-28T04:36:32.981Z,5.20
2018-08-28T04:41:35.555Z,5.57
2018-08-28T04:46:38.069Z,5.13
2018-08-28T04:51:40.652Z,5.03
2018-08-28T04:56:43.181Z,5.30
2018-08-28T05:01:45.938Z,4.10
2018-08-28T05:06:48.430Z,4.37
2018-08-28T05:11:51.072Z,4.87
2018-08-28T05:16:53.495Z,4.90
2018-08-28T05:21:56.056Z,4.93
2018-08-28T05:26:58.572Z,4.80
2018-08-28T05:32:01.104Z,4.60
2018-08-28T05:37:04.392Z,5.07
2018-08-28T05:42:06.988Z,5.00
2018-08-28T05:47:09.518Z,5.10
2018-08-28T05:52:12.046Z,5.57
2018-08-28T05:57:14.563Z,5.07
2018-08-28T06:02:17.124Z,7.73
2018-08-28T06:07:19.615Z,4.77
2018-08-28T06:12:22.123Z,5.37
2018-08-28T06:17:24.631Z,4.83
2018-08-28T06:22:27.158Z,4.40
2018-08-28T06:27:29.724Z,4.90
2018-08-28T06:32:32.258Z,4.90
2018-08-28T06:37:34.771Z,4.47
2018-08-28T06:42:37.308Z,5.20
2018-08-28T06:47:39.816Z,4.57
2018-08-28T06:52:42.451Z,5.00
2018-08-28T06:57:44.947Z,6.20
2018-08-28T07:02:47.498Z,5.13
2018-08-28T07:07:50.042Z,5.27
2018-08-28T07:12:52.544Z,4.93
2018-08-28T07:17:55.082Z,5.53
2018-08-28T07:22:57.664Z,5.90
2018-08-28T07:28:00.462Z,19.93
2018-08-28T07:33:03.068Z,6.03
2018-08-28T07:38:05.620Z,6.20
2018-08-28T07:43:08.297Z,6.27
2018-08-28T07:48:10.908Z,6.87
2018-08-28T07:53:13.472Z,6.40
2018-08-28T07:58:16.031Z,6.10
2018-08-28T08:03:25.276Z,6.60
2018-08-28T08:08:27.782Z,7.10
2018-08-28T08:13:30.861Z,5.73
2018-08-28T08:18:33.500Z,5.90
2018-08-28T08:23:36.113Z,5.87
2018-08-28T08:28:38.648Z,5.93
2018-08-28T08:33:42.286Z,5.73
2018-08-28T08:38:44.839Z,6.00
2018-08-28T08:43:47.402Z,6.53
2018-08-28T08:48:49.918Z,6.57
2018-08-28T08:53:52.486Z,6.67
2018-08-28T08:58:55.063Z,7.30
2018-08-28T09:03:57.600Z,6.90
2018-08-28T09:09:00.151Z,6.13
2018-08-28T09:14:02.729Z,6.33
2018-08-28T09:19:05.271Z,6.87
2018-08-28T09:24:07.805Z,7.03
2018-08-28T09:29:10.772Z,7.10
2018-08-28T09:34:13.282Z,7.50
2018-08-28T09:39:15.859Z,7.60
2018-08-28T09:44:18.407Z,7.57
2018-08-28T09:49:20.955Z,7.50
2018-08-28T09:54:23.752Z,8.40
2018-08-28T09:59:26.320Z,8.53
2018-08-28T10:04:28.880Z,8.63
2018-08-28T10:09:31.440Z,9.07
2018-08-28T10:14:33.971Z,8.60
2018-08-28T10:19:36.485Z,8.63
2018-08-28T10:24:39.056Z,8.50
2018-08-28T10:29:41.637Z,8.47
2018-08-28T10:34:45.588Z,8.27
2018-08-28T10:39:48.118Z,7.97
2018-08-28T10:44:50.663Z,8.50
2018-08-28T10:49:53.751Z,8.40
2018-08-28T10:54:56.290Z,8.70
2018-08-28T10:59:58.818Z,9.15
2018-08-28T11:05:01.447Z,9.00
2018-08-28T11:10:04.067Z,8.63
2018-08-28T11:15:06.660Z,9.60
2018-08-28T11:20:09.227Z,9.25
2018-08-28T11:25:11.785Z,8.65
2018-08-28T11:30:14.483Z,9.70
2018-08-28T11:35:17.015Z,8.95
2018-08-28T11:40:19.606Z,8.93
2018-08-28T11:45:22.162Z,9.30
2018-08-28T11:50:24.683Z,9.03
2018-08-28T11:55:27.232Z,9.13
2018-08-28T12:00:29.771Z,11.50
2018-08-28T12:05:32.308Z,9.05
2018-08-28T12:10:34.915Z,13.05
2018-08-28T12:15:37.499Z,10.90
2018-08-28T12:20:40.031Z,9.38
2018-08-28T12:25:42.577Z,8.90
2018-08-28T12:30:45.268Z,9.70
2018-08-28T12:35:48.077Z,9.23
2018-08-28T12:40:50.678Z,8.78
2018-08-28T12:45:53.282Z,9.53
2018-08-28T12:50:56.003Z,9.28
2018-08-28T12:55:58.523Z,9.90
2018-08-28T13:01:01.095Z,9.98
2018-08-28T13:06:03.655Z,8.98
2018-08-28T13:11:06.701Z,9.23
2018-08-28T13:16:09.235Z,9.40
2018-08-28T13:21:11.748Z,9.63
2018-08-28T13:26:14.293Z,9.05
2018-08-28T13:31:16.823Z,9.45
2018-08-28T13:36:19.439Z,9.83
2018-08-28T13:41:22.011Z,8.98
2018-08-28T13:46:24.539Z,9.33
2018-08-28T13:51:27.179Z,9.13
2018-08-28T13:56:29.767Z,9.90
2018-08-28T14:01:32.335Z,13.78
2018-08-28T14:06:38.238Z,9.48
2018-08-28T14:11:40.842Z,9.43
2018-08-28T14:16:43.401Z,9.70
2018-08-28T14:21:45.939Z,9.65
2018-08-28T14:26:48.534Z,9.20
2018-08-28T14:31:51.213Z,9.45
2018-08-28T14:36:53.726Z,9.50
2018-08-28T14:41:56.317Z,9.25
2018-08-28T14:46:58.895Z,9.93
2018-08-28T14:52:01.504Z,9.68
2018-08-28T14:57:04.099Z,9.58
2018-08-28T15:02:06.694Z,9.05
2018-08-28T15:07:09.368Z,10.32
2018-08-28T15:12:11.831Z,9.53
2018-08-28T15:17:15.331Z,9.08
2018-08-28T15:22:17.871Z,9.60
2018-08-28T15:27:20.698Z,10.23
2018-08-28T15:32:23.208Z,9.25
2018-08-28T15:37:25.752Z,9.65
2018-08-28T15:42:28.311Z,10.28
2018-08-28T15:47:30.865Z,9.40
2018-08-28T15:52:33.513Z,9.60
2018-08-28T15:57:36.101Z,9.25
2018-08-28T16:02:38.679Z,9.75
2018-08-28T16:07:41.291Z,9.43
2018-08-28T16:12:44.049Z,9.28
2018-08-28T16:17:46.599Z,9.20
2018-08-28T16:22:53.594Z,11.20
2018-08-28T16:27:56.217Z,8.85
2018-08-28T16:32:58.770Z,9.95
2018-08-28T16:38:01.303Z,9.70
2018-08-28T16:43:03.874Z,9.30
2018-08-28T16:48:06.432Z,8.90
2018-08-28T16:53:08.961Z,9.85
2018-08-28T16:58:11.499Z,10.03
2018-08-28T17:03:14.012Z,9.60
2018-08-28T17:08:16.984Z,8.50
2018-08-28T17:13:19.556Z,9.67
2018-08-28T17:18:22.124Z,8.77
2018-08-28T17:23:24.677Z,9.70
2018-08-28T17:28:27.246Z,9.67
2018-08-28T17:33:29.803Z,8.27
2018-08-28T17:38:32.354Z,9.60
2018-08-28T17:43:34.917Z,9.77
2018-08-28T17:48:38.387Z,9.83
2018-08-28T17:53:40.916Z,9.97
2018-08-28T17:58:43.463Z,9.60
2018-08-28T18:03:46.047Z,9.20
2018-08-28T18:08:48.589Z,9.40
2018-08-28T18:13:51.130Z,9.37
2018-08-28T18:18:53.700Z,9.53
2018-08-28T18:23:56.228Z,9.43
2018-08-28T18:28:58.841Z,9.60
2018-08-28T18:34:01.360Z,9.60
2018-08-28T18:39:05.245Z,9.87
2018-08-28T18:44:07.811Z,9.23
2018-08-28T18:49:10.339Z,11.23
2018-08-28T18:54:12.907Z,9.50
2018-08-28T18:59:15.491Z,10.10
2018-08-28T19:04:18.031Z,10.63
2018-08-28T19:09:20.751Z,10.50
2018-08-28T19:14:23.197Z,10.20
2018-08-28T19:19:25.796Z,10.63
2018-08-28T19:24:28.361Z,11.07
2018-08-28T19:29:30.970Z,10.40
2018-08-28T19:34:33.503Z,9.07
2018-08-28T19:39:36.394Z,9.67
2018-08-28T19:44:38.989Z,9.33
2018-08-28T19:49:45.465Z,10.33
2018-08-28T19:54:47.989Z,10.37
2018-08-28T19:59:50.540Z,10.03
2018-08-28T20:04:53.087Z,10.30
2018-08-28T20:09:55.678Z,10.50
2018-08-28T20:14:58.269Z,10.17
2018-08-28T20:20:00.823Z,10.13
2018-08-28T20:25:03.400Z,10.00
2018-08-28T20:30:06.655Z,9.60
2018-08-28T20:35:09.192Z,10.37
2018-08-28T20:40:11.746Z,10.50
2018-08-28T20:45:14.304Z,9.30
2018-08-28T20:50:16.879Z,10.37
2018-08-28T20:55:19.407Z,9.80
2018-08-28T21:00:21.983Z,9.43
2018-08-28T21:05:28.326Z,9.67
2018-08-28T21:10:30.896Z,9.87
2018-08-28T21:15:33.443Z,10.13
2018-08-28T21:20:36.010Z,9.90
2018-08-28T21:25:38.561Z,9.60
2018-08-28T21:30:41.128Z,9.20
2018-08-28T21:35:43.782Z,9.97
2018-08-28T21:40:46.300Z,9.57
2018-08-28T21:45:48.918Z,10.20
2018-08-28T21:50:51.471Z,9.37
2018-08-28T21:55:54.015Z,9.17
2018-08-28T22:01:02.436Z,8.87
2018-08-28T22:06:05.042Z,8.50
2018-08-28T22:11:07.596Z,8.73
2018-08-28T22:16:10.169Z,9.00
2018-08-28T22:21:12.830Z,9.50
2018-08-28T22:26:15.644Z,9.37
2018-08-28T22:31:18.207Z,8.77
2018-08-28T22:36:20.835Z,9.27
2018-08-28T22:41:23.371Z,8.77
2018-08-28T22:46:25.915Z,9.93
2018-08-28T22:51:28.533Z,9.40
2018-08-28T22:56:31.051Z,9.30
2018-08-28T23:01:33.591Z,9.37
2018-08-28T23:06:36.106Z,9.53
2018-08-28T23:11:38.618Z,9.13
2018-08-28T23:16:41.151Z,9.80
2018-08-28T23:21:43.681Z,10.17
2018-08-28T23:26:46.179Z,9.10
2018-08-28T23:31:48.687Z,9.37
2018-08-28T23:36:51.223Z,9.23
2018-08-28T23:41:53.903Z,8.70
2018-08-28T23:46:56.446Z,8.80
2018-08-28T23:51:59.262Z,9.03
2018-08-28T23:57:01.815Z,9.30
